Terminal Aerodrome Forecast
Issued by NWS San Angelo, TX

Current Version | Previous Version | Text Only | Print | Product List | Glossary Off
Versions: 1 2 3 4 5 6 7 8 9 10 11 12 13 14 15 16 17 18 19

000
FTUS44 KSJT 241100
TAFSJT
TAF
KSJT 241131Z 2412/2512 21005KT 4SM BR SKC
      TEMPO 2412/2413 2SM BR
     FM241500 20007KT P6SM SKC=

USA.gov is the U.S. government's official web portal to all federal, state and local government web resources and services.